Time;durP1;ratioP1;P1;durP2;ratioP2;P2;SDS_P1;SDS_P2;PMS_P1;PMS_P2;Temp;Humidity;BMP_temperature;BMP_pressure;BME280_temperature;BME280_humidity;BME280_pressure;Samples;Min_cycle;Max_cycle;Signal;HPM_P1;HPM_P2
2021/08/30 14:29:25;;;;;;;2.88;2.67;;;;;;;;;;5086569;28;20043;-71
2021/08/30 14:31:51;;;;;;;2.80;2.67;;;;;;;;;;5090575;28;20432;-71
2021/08/30 14:34:17;;;;;;;3.17;2.88;;;;;;;;;;5090170;28;20046;-71
2021/08/30 14:36:43;;;;;;;3.40;3.10;;;;;;;;;;5090442;28;20020;-71
2021/08/30 14:39:09;;;;;;;2.90;2.70;;;;;;;;;;5090036;28;20385;-71
2021/08/30 14:41:35;;;;;;;3.05;2.85;;;;;;;;;;5090736;28;20443;-71
2021/08/30 14:44:01;;;;;;;2.90;2.70;;;;;;;;;;5090408;28;20035;-71
2021/08/30 14:46:27;;;;;;;2.85;2.65;;;;;;;;;;5090612;28;20417;-71
2021/08/30 14:48:52;;;;;;;2.90;2.70;;;;;;;;;;5090539;28;20539;-71
2021/08/30 14:51:18;;;;;;;2.75;2.55;;;;;;;;;;5090598;28;20036;-70
2021/08/30 14:53:43;;;;;;;3.05;2.50;;;;;;;;;;5090420;28;20036;-70
2021/08/30 14:56:09;;;;;;;3.15;2.95;;;;;;;;;;5090517;28;20028;-71
2021/08/30 14:58:35;;;;;;;2.90;2.70;;;;;;;;;;5090365;28;20047;-71
2021/08/30 15:01:01;;;;;;;3.25;2.97;;;;;;;;;;5090205;28;20033;-70
2021/08/30 15:03:27;;;;;;;3.53;3.25;;;;;;;;;;5090284;28;20048;-70
2021/08/30 15:05:52;;;;;;;4.03;3.63;;;;;;;;;;5090066;28;20074;-69
2021/08/30 15:08:19;;;;;;;4.07;3.60;;;;;;;;;;5090099;28;20097;-70
2021/08/30 15:10:45;;;;;;;3.58;3.28;;;;;;;;;;5090407;28;20059;-70
2021/08/30 15:13:11;;;;;;;4.90;4.07;;;;;;;;;;5090160;28;20036;-69
2021/08/30 15:15:36;;;;;;;4.13;3.50;;;;;;;;;;5090384;28;20061;-70
2021/08/30 15:18:03;;;;;;;3.92;3.65;;;;;;;;;;5089761;28;20036;-70
2021/08/30 15:20:29;;;;;;;4.13;3.78;;;;;;;;;;5088942;28;20070;-69
2021/08/30 15:22:56;;;;;;;3.80;3.50;;;;;;;;;;5088933;28;20189;-70
2021/08/30 15:25:21;;;;;;;3.47;3.28;;;;;;;;;;5070413;28;20035;-70
2021/08/30 15:27:47;;;;;;;4.30;3.90;;;;;;;;;;5070531;28;20401;-71
2021/08/30 15:30:13;;;;;;;3.90;3.63;;;;;;;;;;5089054;28;20105;-71
2021/08/30 15:32:38;;;;;;;4.28;3.97;;;;;;;;;;5088475;28;20051;-71
2021/08/30 15:35:07;;;;;;;4.00;3.72;;;;;;;;;;5089658;28;20047;-70
2021/08/30 15:37:33;;;;;;;4.30;4.00;;;;;;;;;;5095780;28;20482;-71
2021/08/30 15:40:00;;;;;;;4.38;4.03;;;;;;;;;;5092673;28;20044;-71
2021/08/30 15:42:25;;;;;;;5.22;4.72;;;;;;;;;;5080306;28;20028;-70
2021/08/30 15:44:51;;;;;;;4.63;4.20;;;;;;;;;;5102204;28;20028;-70
2021/08/30 15:47:17;;;;;;;5.57;5.07;;;;;;;;;;5093041;28;20027;-71
2021/08/30 15:49:43;;;;;;;4.72;4.32;;;;;;;;;;5104050;28;20093;-71
2021/08/30 15:52:09;;;;;;;4.80;4.32;;;;;;;;;;5105309;28;20020;-71
2021/08/30 15:54:35;;;;;;;5.20;4.72;;;;;;;;;;5106182;28;20036;-71
2021/08/30 15:57:02;;;;;;;4.85;4.45;;;;;;;;;;5107062;28;20020;-71
2021/08/30 15:59:27;;;;;;;5.57;4.15;;;;;;;;;;5116868;28;20036;-70
2021/08/30 16:01:53;;;;;;;5.65;5.13;;;;;;;;;;5107849;28;20476;-70
2021/08/30 16:04:19;;;;;;;5.30;4.85;;;;;;;;;;5114030;28;20047;-71
2021/08/30 16:06:49;;;;;;;5.72;5.03;;;;;;;;;;5113843;28;20027;-70
2021/08/30 16:09:14;;;;;;;5.70;5.15;;;;;;;;;;5113659;28;20725;-71
2021/08/30 16:11:40;;;;;;;5.32;4.82;;;;;;;;;;5113393;28;20032;-72
2021/08/30 16:14:05;;;;;;;6.40;5.40;;;;;;;;;;5094380;28;20497;-62
2021/08/30 16:16:31;;;;;;;5.47;4.95;;;;;;;;;;5112673;28;20024;-62
2021/08/30 16:18:57;;;;;;;6.15;5.65;;;;;;;;;;5113094;28;20067;-62
2021/08/30 16:21:22;;;;;;;6.65;5.68;;;;;;;;;;5107334;28;20493;-62
2021/08/30 16:23:48;;;;;;;5.47;4.97;;;;;;;;;;5102922;28;20036;-62
2021/08/30 16:26:13;;;;;;;7.40;5.70;;;;;;;;;;5100749;28;20063;-62
2021/08/30 16:28:39;;;;;;;6.18;5.60;;;;;;;;;;5101239;28;20786;-62
2021/08/30 16:31:04;;;;;;;6.35;5.75;;;;;;;;;;5100276;28;20543;-62
2021/08/30 16:33:30;;;;;;;6.03;5.43;;;;;;;;;;5105890;28;20079;-63
2021/08/30 16:35:56;;;;;;;5.93;5.38;;;;;;;;;;5112593;28;20481;-62
2021/08/30 16:38:21;;;;;;;5.82;5.30;;;;;;;;;;5094115;28;20483;-62
2021/08/30 16:40:47;;;;;;;6.43;5.82;;;;;;;;;;5112591;28;20043;-62
2021/08/30 16:43:14;;;;;;;5.35;4.93;;;;;;;;;;5111961;28;20044;-62
2021/08/30 16:45:40;;;;;;;7.03;6.38;;;;;;;;;;5112506;28;20046;-62
2021/08/30 16:48:05;;;;;;;8.23;6.65;;;;;;;;;;5093987;28;20031;-62
2021/08/30 16:50:31;;;;;;;7.07;6.38;;;;;;;;;;5112252;28;20040;-63
2021/08/30 16:52:57;;;;;;;7.45;6.28;;;;;;;;;;5112155;28;20385;-63
2021/08/30 16:55:23;;;;;;;7.22;6.53;;;;;;;;;;5112531;28;20060;-62
2021/08/30 16:57:48;;;;;;;6.78;5.97;;;;;;;;;;5111580;28;20031;-62
2021/08/30 17:00:15;;;;;;;7.28;6.60;;;;;;;;;;5110954;28;20142;-63
2021/08/30 17:02:41;;;;;;;7.53;6.78;;;;;;;;;;5093666;28;20035;-62
2021/08/30 17:05:07;;;;;;;6.88;5.70;;;;;;;;;;5091565;28;20138;-62
2021/08/30 17:07:34;;;;;;;7.90;7.20;;;;;;;;;;5091609;28;20078;-62
2021/08/30 17:09:59;;;;;;;8.77;7.88;;;;;;;;;;5091772;28;20565;-62
2021/08/30 17:12:25;;;;;;;9.48;8.43;;;;;;;;;;5072962;28;20150;-62
2021/08/30 17:14:51;;;;;;;9.93;8.43;;;;;;;;;;5091647;28;20089;-63
2021/08/30 17:17:16;;;;;;;8.75;7.90;;;;;;;;;;5091595;28;20028;-62
2021/08/30 17:19:42;;;;;;;10.35;8.00;;;;;;;;;;5091397;28;20066;-63
2021/08/30 17:22:07;;;;;;;13.13;8.98;;;;;;;;;;5091046;28;20491;-62
2021/08/30 17:24:33;;;;;;;11.75;8.00;;;;;;;;;;5072879;28;20823;-62
2021/08/30 17:26:58;;;;;;;11.63;9.18;;;;;;;;;;5094775;28;20028;-63
2021/08/30 17:29:24;;;;;;;13.02;9.85;;;;;;;;;;5111725;28;20080;-62
2021/08/30 17:31:49;;;;;;;15.50;10.60;;;;;;;;;;5100424;28;20108;-62
2021/08/30 17:34:15;;;;;;;14.27;11.65;;;;;;;;;;5106148;28;20043;-63
2021/08/30 17:36:42;;;;;;;12.80;9.05;;;;;;;;;;5101867;28;20080;-63
2021/08/30 17:39:08;;;;;;;12.25;9.40;;;;;;;;;;5106428;28;20507;-63
2021/08/30 17:41:35;;;;;;;12.23;9.95;;;;;;;;;;5111331;28;20401;-63
2021/08/30 17:44:02;;;;;;;14.20;10.90;;;;;;;;;;5111148;28;20040;-63
2021/08/30 17:46:27;;;;;;;12.85;9.30;;;;;;;;;;5107416;28;20031;-63
2021/08/30 17:48:53;;;;;;;15.18;11.75;;;;;;;;;;5110296;28;20035;-63
2021/08/30 17:51:19;;;;;;;14.75;11.15;;;;;;;;;;5110853;28;20765;-62
2021/08/30 17:53:45;;;;;;;16.15;12.27;;;;;;;;;;5111082;28;20046;-62
2021/08/30 17:56:10;;;;;;;14.48;11.82;;;;;;;;;;5111062;28;20401;-62
2021/08/30 17:58:36;;;;;;;17.00;12.70;;;;;;;;;;5110921;28;20043;-62
2021/08/30 18:01:02;;;;;;;16.55;12.40;;;;;;;;;;5110567;28;20646;-62
2021/08/30 18:03:28;;;;;;;15.80;12.02;;;;;;;;;;5111098;28;20043;-62
2021/08/30 18:05:54;;;;;;;14.00;11.27;;;;;;;;;;5104273;28;20040;-61
2021/08/30 18:08:20;;;;;;;16.17;12.18;;;;;;;;;;5098574;28;20044;-61
2021/08/30 18:10:45;;;;;;;12.15;10.27;;;;;;;;;;5098595;28;20043;-69
2021/08/30 18:13:11;;;;;;;15.00;10.45;;;;;;;;;;5096483;28;20032;-70
2021/08/30 18:15:37;;;;;;;12.88;10.07;;;;;;;;;;5099256;28;20055;-70
2021/08/30 18:18:03;;;;;;;13.10;10.40;;;;;;;;;;5090222;28;20028;-61
2021/08/30 18:20:29;;;;;;;14.93;10.93;;;;;;;;;;5110738;28;20380;-62
2021/08/30 18:22:54;;;;;;;13.35;8.63;;;;;;;;;;5091888;28;20051;-62
2021/08/30 18:25:20;;;;;;;9.70;8.68;;;;;;;;;;5110695;28;20103;-62
2021/08/30 18:27:49;;;;;;;12.57;9.63;;;;;;;;;;5110882;28;20036;-62
2021/08/30 18:30:15;;;;;;;11.20;8.85;;;;;;;;;;5091881;28;20446;-62
2021/08/30 18:32:41;;;;;;;11.88;8.73;;;;;;;;;;5110298;28;20062;-63
2021/08/30 18:35:07;;;;;;;12.60;8.75;;;;;;;;;;5110481;28;20473;-62
2021/08/30 18:37:33;;;;;;;13.95;9.75;;;;;;;;;;5109864;28;20114;-62
2021/08/30 18:39:58;;;;;;;11.50;9.43;;;;;;;;;;5110424;28;20481;-61
2021/08/30 18:42:24;;;;;;;11.05;9.85;;;;;;;;;;5110196;28;20160;-62
2021/08/30 18:44:50;;;;;;;12.48;9.77;;;;;;;;;;5109145;28;20036;-62
2021/08/30 18:47:16;;;;;;;13.57;9.95;;;;;;;;;;5110387;28;20393;-63
2021/08/30 18:49:41;;;;;;;13.60;10.57;;;;;;;;;;5110179;28;20081;-62
2021/08/30 18:52:07;;;;;;;13.68;10.82;;;;;;;;;;5091983;28;20461;-62
2021/08/30 18:54:32;;;;;;;13.85;10.50;;;;;;;;;;5110281;28;20058;-62
2021/08/30 18:56:58;;;;;;;13.50;11.07;;;;;;;;;;5110423;28;20097;-62
2021/08/30 18:59:24;;;;;;;14.75;12.52;;;;;;;;;;5110182;28;20031;-62
2021/08/30 19:01:50;;;;;;;12.95;11.55;;;;;;;;;;5109775;28;20026;-62
2021/08/30 19:04:17;;;;;;;14.73;13.05;;;;;;;;;;5110251;28;20039;-62
2021/08/30 19:06:42;;;;;;;13.82;11.93;;;;;;;;;;5110663;28;20038;-68
2021/08/30 19:09:08;;;;;;;15.63;12.00;;;;;;;;;;5110697;28;20035;-71
2021/08/30 19:11:33;;;;;;;13.02;11.25;;;;;;;;;;5101193;28;20032;-71
2021/08/30 19:13:59;;;;;;;16.67;11.75;;;;;;;;;;5090620;28;20058;-69
2021/08/30 19:16:24;;;;;;;15.18;12.35;;;;;;;;;;5091204;28;20036;-68
2021/08/30 19:18:50;;;;;;;18.88;12.93;;;;;;;;;;5091713;28;20036;-68
2021/08/30 19:21:16;;;;;;;18.02;12.68;;;;;;;;;;5110093;28;20019;-68
2021/08/30 19:23:42;;;;;;;19.20;13.15;;;;;;;;;;5072425;28;20039;-69
2021/08/30 19:26:07;;;;;;;20.20;15.18;;;;;;;;;;5093070;28;20023;-69
2021/08/30 19:28:33;;;;;;;22.83;15.80;;;;;;;;;;5111355;28;20040;-68
2021/08/30 19:30:58;;;;;;;21.23;15.40;;;;;;;;;;5110792;28;20036;-68
2021/08/30 19:33:24;;;;;;;21.05;15.40;;;;;;;;;;5110890;28;20044;-69
2021/08/30 19:35:50;;;;;;;21.80;16.42;;;;;;;;;;5092493;28;20751;-69
2021/08/30 19:38:16;;;;;;;22.80;16.95;;;;;;;;;;5105184;28;20032;-68
2021/08/30 19:40:42;;;;;;;22.75;17.52;;;;;;;;;;5093933;28;20029;-68
2021/08/30 19:43:08;;;;;;;23.27;17.35;;;;;;;;;;5111260;28;20139;-68
2021/08/30 19:45:34;;;;;;;25.25;18.05;;;;;;;;;;5109952;28;20127;-69
2021/08/30 19:48:00;;;;;;;23.90;17.27;;;;;;;;;;5110442;28;20071;-69
2021/08/30 19:50:26;;;;;;;22.15;17.08;;;;;;;;;;5111065;28;20611;-69
2021/08/30 19:52:51;;;;;;;19.77;14.60;;;;;;;;;;5110508;28;20048;-68
2021/08/30 19:55:17;;;;;;;21.17;15.50;;;;;;;;;;5110711;28;20085;-68
2021/08/30 19:57:47;;;;;;;19.90;15.38;;;;;;;;;;5110101;28;20112;-69
2021/08/30 20:00:17;;;;;;;20.42;14.65;;;;;;;;;;5109920;28;20043;-69
2021/08/30 20:02:44;;;;;;;20.67;15.32;;;;;;;;;;5111101;28;20089;-69
2021/08/30 20:05:10;;;;;;;24.33;15.52;;;;;;;;;;5110691;28;20023;-68
2021/08/30 20:07:37;;;;;;;20.77;15.15;;;;;;;;;;5109882;28;20040;-68
2021/08/30 20:10:02;;;;;;;22.15;15.50;;;;;;;;;;5110627;28;20134;-70
2021/08/30 20:12:28;;;;;;;21.90;16.17;;;;;;;;;;5110227;28;20524;-69
2021/08/30 20:14:54;;;;;;;21.73;16.00;;;;;;;;;;5091145;28;20024;-70
2021/08/30 20:17:19;;;;;;;20.67;16.02;;;;;;;;;;5111730;28;20038;-62
2021/08/30 20:19:44;;;;;;;24.50;16.27;;;;;;;;;;5116424;28;20461;-62
2021/08/30 20:22:10;;;;;;;19.60;15.15;;;;;;;;;;5116664;28;20032;-62
2021/08/30 20:24:35;;;;;;;22.85;16.13;;;;;;;;;;5116397;28;20028;-62
2021/08/30 20:27:01;;;;;;;22.60;16.60;;;;;;;;;;5116560;28;20032;-62
2021/08/30 20:29:26;;;;;;;23.20;17.00;;;;;;;;;;5116690;28;20024;-62
2021/08/30 20:31:52;;;;;;;22.98;15.73;;;;;;;;;;5098037;28;20039;-62
2021/08/30 20:34:17;;;;;;;24.75;17.58;;;;;;;;;;5115889;28;20048;-62
2021/08/30 20:36:43;;;;;;;23.80;17.75;;;;;;;;;;5115431;28;20423;-61
2021/08/30 20:39:08;;;;;;;22.33;16.58;;;;;;;;;;5116339;28;20485;-61
2021/08/30 20:41:34;;;;;;;25.05;17.65;;;;;;;;;;5116111;28;20036;-68
2021/08/30 20:44:00;;;;;;;23.10;18.38;;;;;;;;;;5116064;28;20027;-69
2021/08/30 20:46:26;;;;;;;22.52;16.83;;;;;;;;;;5098216;28;20046;-69
2021/08/30 20:48:51;;;;;;;24.10;18.15;;;;;;;;;;5116157;28;20032;-69
2021/08/30 20:51:17;;;;;;;21.85;16.70;;;;;;;;;;5116052;28;20036;-69
2021/08/30 20:53:42;;;;;;;21.85;16.90;;;;;;;;;;5116174;28;20092;-69
2021/08/30 20:56:13;;;;;;;22.40;15.75;;;;;;;;;;5115832;28;20546;-69
2021/08/30 20:58:39;;;;;;;24.75;17.88;;;;;;;;;;5097388;28;20039;-62
2021/08/30 21:01:05;;;;;;;20.30;15.50;;;;;;;;;;5097619;28;20500;-62
2021/08/30 21:03:31;;;;;;;21.30;16.15;;;;;;;;;;5115645;28;20040;-62
2021/08/30 21:05:56;;;;;;;20.58;16.30;;;;;;;;;;5097399;28;20024;-62
2021/08/30 21:08:22;;;;;;;19.83;15.77;;;;;;;;;;5115454;28;20047;-69
2021/08/30 21:10:48;;;;;;;20.73;15.63;;;;;;;;;;5115857;28;20060;-70
2021/08/30 21:13:14;;;;;;;19.50;15.25;;;;;;;;;;5115776;28;20047;-61
2021/08/30 21:15:39;;;;;;;19.63;14.60;;;;;;;;;;5115877;28;20020;-62
2021/08/30 21:18:05;;;;;;;18.63;14.68;;;;;;;;;;5115564;28;20036;-69
2021/08/30 21:20:31;;;;;;;18.02;14.27;;;;;;;;;;5097278;28;20023;-70
2021/08/30 21:22:57;;;;;;;18.90;14.25;;;;;;;;;;5115350;28;20035;-70
2021/08/30 21:25:23;;;;;;;19.27;13.85;;;;;;;;;;5097443;28;20157;-70
2021/08/30 21:27:49;;;;;;;17.90;12.73;;;;;;;;;;5080293;28;20040;-62
2021/08/30 21:30:14;;;;;;;17.10;13.95;;;;;;;;;;5115016;28;20031;-63
2021/08/30 21:32:40;;;;;;;19.40;13.27;;;;;;;;;;5079881;28;20040;-69
2021/08/30 21:35:06;;;;;;;16.60;12.98;;;;;;;;;;5115198;28;20085;-69
2021/08/30 21:37:31;;;;;;;19.45;14.70;;;;;;;;;;5115213;28;20039;-69
2021/08/30 21:39:58;;;;;;;18.70;14.60;;;;;;;;;;5115177;28;20016;-69
2021/08/30 21:42:24;;;;;;;19.02;14.65;;;;;;;;;;5115062;28;20039;-63
2021/08/30 21:44:49;;;;;;;19.10;14.00;;;;;;;;;;5115102;28;20469;-62
2021/08/30 21:47:16;;;;;;;18.02;10.88;;;;;;;;;;5115075;28;20088;-63
2021/08/30 21:49:41;;;;;;;20.88;15.52;;;;;;;;;;5096670;28;20476;-63
2021/08/30 21:52:07;;;;;;;19.02;13.88;;;;;;;;;;5114862;28;20040;-63
2021/08/30 21:54:32;;;;;;;22.70;14.63;;;;;;;;;;5114822;28;20027;-63
2021/08/30 21:56:58;;;;;;;19.67;14.15;;;;;;;;;;5096520;28;20499;-63
2021/08/30 21:59:23;;;;;;;19.13;14.02;;;;;;;;;;5114332;28;20019;-62
2021/08/30 22:01:49;;;;;;;20.20;14.35;;;;;;;;;;5113772;28;20046;-64
2021/08/30 22:04:14;;;;;;;18.50;13.52;;;;;;;;;;5096748;28;20036;-61
2021/08/30 22:06:40;;;;;;;18.30;13.55;;;;;;;;;;5096331;28;20071;-63
2021/08/30 22:09:05;;;;;;;17.38;12.80;;;;;;;;;;5114326;28;20047;-62
2021/08/30 22:11:31;;;;;;;13.57;10.07;;;;;;;;;;5114302;28;20046;-63
2021/08/30 22:13:58;;;;;;;17.13;13.48;;;;;;;;;;5114517;28;20035;-63
2021/08/30 22:16:28;;;;;;;12.02;8.50;;;;;;;;;;5114425;28;20035;-63
2021/08/30 22:18:54;;;;;;;17.23;13.50;;;;;;;;;;5114523;28;20039;-63
2021/08/30 22:21:19;;;;;;;17.40;12.55;;;;;;;;;;5114249;28;20016;-63
2021/08/30 22:23:45;;;;;;;16.17;12.73;;;;;;;;;;5095958;28;20043;-62
2021/08/30 22:26:11;;;;;;;10.00;7.05;;;;;;;;;;5114446;28;20098;-63
2021/08/30 22:28:36;;;;;;;16.98;12.00;;;;;;;;;;5114609;28;20092;-70
2021/08/30 22:31:02;;;;;;;13.40;10.27;;;;;;;;;;5114410;28;20031;-69
2021/08/30 22:33:27;;;;;;;11.88;9.60;;;;;;;;;;5113728;28;20035;-69
2021/08/30 22:35:53;;;;;;;13.05;10.48;;;;;;;;;;5113902;28;20400;-70
2021/08/30 22:38:19;;;;;;;13.15;10.38;;;;;;;;;;5114243;28;20374;-69
2021/08/30 22:40:45;;;;;;;12.57;9.70;;;;;;;;;;5113881;28;20409;-70
2021/08/30 22:43:11;;;;;;;11.60;9.52;;;;;;;;;;5113970;28;20122;-70
2021/08/30 22:45:36;;;;;;;10.32;8.63;;;;;;;;;;5114150;28;20119;-70
2021/08/30 22:48:02;;;;;;;8.90;7.55;;;;;;;;;;5095644;28;20500;-62
2021/08/30 22:50:28;;;;;;;8.50;6.97;;;;;;;;;;5114019;28;20108;-63
2021/08/30 22:52:53;;;;;;;10.45;7.80;;;;;;;;;;5113891;28;20066;-63
2021/08/30 22:55:19;;;;;;;6.60;5.68;;;;;;;;;;5095320;28;20028;-63
2021/08/30 22:57:44;;;;;;;12.18;7.93;;;;;;;;;;5113701;28;20047;-62
2021/08/30 23:00:10;;;;;;;5.88;5.30;;;;;;;;;;5100040;28;20027;-62
2021/08/30 23:02:36;;;;;;;5.63;4.57;;;;;;;;;;5120763;28;20077;-63
2021/08/30 23:05:01;;;;;;;9.18;6.50;;;;;;;;;;5120701;28;20023;-62
2021/08/30 23:07:27;;;;;;;8.60;6.68;;;;;;;;;;5102196;28;20033;-63
2021/08/30 23:09:53;;;;;;;7.32;6.35;;;;;;;;;;5102884;28;20129;-62
2021/08/30 23:12:19;;;;;;;8.60;7.45;;;;;;;;;;5120574;28;20500;-62
2021/08/30 23:14:45;;;;;;;8.07;6.82;;;;;;;;;;5102366;28;20024;-63
2021/08/30 23:17:11;;;;;;;9.95;7.30;;;;;;;;;;5120627;28;20035;-62
2021/08/30 23:19:37;;;;;;;9.05;7.20;;;;;;;;;;5120587;28;20489;-62
2021/08/30 23:22:02;;;;;;;7.20;6.53;;;;;;;;;;5120246;28;20119;-62
2021/08/30 23:24:28;;;;;;;7.10;6.25;;;;;;;;;;5120716;28;20032;-62
2021/08/30 23:26:54;;;;;;;6.82;6.13;;;;;;;;;;5102137;28;20043;-63
2021/08/30 23:29:19;;;;;;;6.72;6.05;;;;;;;;;;5120357;28;20020;-62
